sensor_id;sensor_type;location;lat;lon;timestamp;temperature;humidity
23259;DHT22;11798;51.528;7.240;2023-05-16T00:00:58;11.20;99.90
23259;DHT22;11798;51.528;7.240;2023-05-16T00:03:23;11.20;99.90
23259;DHT22;11798;51.528;7.240;2023-05-16T00:05:49;11.10;99.90
23259;DHT22;11798;51.528;7.240;2023-05-16T00:08:15;11.10;99.90
23259;DHT22;11798;51.528;7.240;2023-05-16T00:10:40;11.00;99.90
23259;DHT22;11798;51.528;7.240;2023-05-16T00:13:06;11.10;99.90
23259;DHT22;11798;51.528;7.240;2023-05-16T00:15:31;11.10;99.90
23259;DHT22;11798;51.528;7.240;2023-05-16T00:17:57;11.00;99.90
23259;DHT22;11798;51.528;7.240;2023-05-16T00:20:24;11.00;99.90
23259;DHT22;11798;51.528;7.240;2023-05-16T00:22:49;11.00;99.90
23259;DHT22;11798;51.528;7.240;2023-05-16T00:25:15;11.00;99.90
23259;DHT22;11798;51.528;7.240;2023-05-16T00:27:41;11.10;99.90
23259;DHT22;11798;51.528;7.240;2023-05-16T00:30:06;11.00;99.90
23259;DHT22;11798;51.528;7.240;2023-05-16T00:32:32;11.00;99.90
23259;DHT22;11798;51.528;7.240;2023-05-16T00:34:57;11.00;99.90
23259;DHT22;11798;51.528;7.240;2023-05-16T00:37:23;11.10;99.90
23259;DHT22;11798;51.528;7.240;2023-05-16T00:39:48;11.00;99.90
23259;DHT22;11798;51.528;7.240;2023-05-16T00:42:14;10.90;99.90
23259;DHT22;11798;51.528;7.240;2023-05-16T00:44:39;10.90;99.90
23259;DHT22;11798;51.528;7.240;2023-05-16T00:47:05;11.00;99.90
23259;DHT22;11798;51.528;7.240;2023-05-16T00:49:31;11.00;99.90
23259;DHT22;11798;51.528;7.240;2023-05-16T00:51:57;10.90;99.90
23259;DHT22;11798;51.528;7.240;2023-05-16T00:54:22;10.90;99.90
23259;DHT22;11798;51.528;7.240;2023-05-16T00:56:51;11.00;99.90
23259;DHT22;11798;51.528;7.240;2023-05-16T00:59:17;11.00;99.90
23259;DHT22;11798;51.528;7.240;2023-05-16T01:01:44;11.00;99.90
23259;DHT22;11798;51.528;7.240;2023-05-16T01:04:10;11.00;99.90
23259;DHT22;11798;51.528;7.240;2023-05-16T01:06:36;11.00;99.90
23259;DHT22;11798;51.528;7.240;2023-05-16T01:09:02;10.90;99.90
23259;DHT22;11798;51.528;7.240;2023-05-16T01:14:03;10.70;99.90
23259;DHT22;11798;51.528;7.240;2023-05-16T01:16:49;10.80;99.90
23259;DHT22;11798;51.528;7.240;2023-05-16T01:22:05;10.60;99.90
23259;DHT22;11798;51.528;7.240;2023-05-16T01:26:56;10.50;99.90
23259;DHT22;11798;51.528;7.240;2023-05-16T01:29:23;10.50;99.90
23259;DHT22;11798;51.528;7.240;2023-05-16T01:31:48;10.40;99.90
23259;DHT22;11798;51.528;7.240;2023-05-16T01:34:14;10.30;99.90
23259;DHT22;11798;51.528;7.240;2023-05-16T01:36:43;10.00;99.90
23259;DHT22;11798;51.528;7.240;2023-05-16T01:39:19;9.90;99.90
23259;DHT22;11798;51.528;7.240;2023-05-16T01:41:53;9.70;99.90
23259;DHT22;11798;51.528;7.240;2023-05-16T01:44:31;9.70;99.90
23259;DHT22;11798;51.528;7.240;2023-05-16T01:46:58;9.50;99.90
23259;DHT22;11798;51.528;7.240;2023-05-16T01:49:35;9.50;99.90
23259;DHT22;11798;51.528;7.240;2023-05-16T01:52:07;9.50;99.90
23259;DHT22;11798;51.528;7.240;2023-05-16T01:54:34;9.50;99.90
23259;DHT22;11798;51.528;7.240;2023-05-16T01:57:01;9.50;99.90
23259;DHT22;11798;51.528;7.240;2023-05-16T01:59:28;9.40;99.90
23259;DHT22;11798;51.528;7.240;2023-05-16T02:01:55;9.50;99.90
23259;DHT22;11798;51.528;7.240;2023-05-16T02:04:21;9.40;99.90
23259;DHT22;11798;51.528;7.240;2023-05-16T02:06:48;9.40;99.90
23259;DHT22;11798;51.528;7.240;2023-05-16T02:09:14;9.40;99.90
23259;DHT22;11798;51.528;7.240;2023-05-16T02:11:39;9.50;99.90
23259;DHT22;11798;51.528;7.240;2023-05-16T02:14:05;9.50;99.90
23259;DHT22;11798;51.528;7.240;2023-05-16T02:16:30;9.40;99.90
23259;DHT22;11798;51.528;7.240;2023-05-16T02:18:56;9.40;99.90
23259;DHT22;11798;51.528;7.240;2023-05-16T02:21:21;9.40;99.90
23259;DHT22;11798;51.528;7.240;2023-05-16T02:23:47;9.40;99.90
23259;DHT22;11798;51.528;7.240;2023-05-16T02:26:12;9.40;99.90
23259;DHT22;11798;51.528;7.240;2023-05-16T02:28:38;9.40;99.90
23259;DHT22;11798;51.528;7.240;2023-05-16T02:31:03;9.50;99.90
23259;DHT22;11798;51.528;7.240;2023-05-16T02:33:29;9.50;99.90
23259;DHT22;11798;51.528;7.240;2023-05-16T02:35:55;9.50;99.90
23259;DHT22;11798;51.528;7.240;2023-05-16T02:38:20;9.60;99.90
23259;DHT22;11798;51.528;7.240;2023-05-16T02:40:46;9.50;99.90
23259;DHT22;11798;51.528;7.240;2023-05-16T02:43:12;9.60;99.90
23259;DHT22;11798;51.528;7.240;2023-05-16T02:45:37;9.60;99.90
23259;DHT22;11798;51.528;7.240;2023-05-16T02:48:03;9.60;99.90
23259;DHT22;11798;51.528;7.240;2023-05-16T02:50:28;9.60;99.90
23259;DHT22;11798;51.528;7.240;2023-05-16T02:52:54;9.70;99.90
23259;DHT22;11798;51.528;7.240;2023-05-16T02:55:20;9.70;99.90
23259;DHT22;11798;51.528;7.240;2023-05-16T02:57:45;9.80;99.90
23259;DHT22;11798;51.528;7.240;2023-05-16T03:00:11;9.80;99.90
23259;DHT22;11798;51.528;7.240;2023-05-16T03:02:37;9.70;99.90
23259;DHT22;11798;51.528;7.240;2023-05-16T03:05:02;9.60;99.90
23259;DHT22;11798;51.528;7.240;2023-05-16T03:07:29;9.70;99.90
23259;DHT22;11798;51.528;7.240;2023-05-16T03:09:54;9.60;99.90
23259;DHT22;11798;51.528;7.240;2023-05-16T03:12:20;9.70;99.90
23259;DHT22;11798;51.528;7.240;2023-05-16T03:14:45;9.60;99.90
23259;DHT22;11798;51.528;7.240;2023-05-16T03:17:11;9.70;99.90
23259;DHT22;11798;51.528;7.240;2023-05-16T03:19:36;9.60;99.90
23259;DHT22;11798;51.528;7.240;2023-05-16T03:22:02;9.60;99.90
23259;DHT22;11798;51.528;7.240;2023-05-16T03:24:28;9.60;99.90
23259;DHT22;11798;51.528;7.240;2023-05-16T03:26:53;9.60;99.90
23259;DHT22;11798;51.528;7.240;2023-05-16T03:29:19;9.50;99.90
23259;DHT22;11798;51.528;7.240;2023-05-16T03:31:45;9.50;99.90
23259;DHT22;11798;51.528;7.240;2023-05-16T03:34:10;9.40;99.90
23259;DHT22;11798;51.528;7.240;2023-05-16T03:36:37;9.50;99.90
23259;DHT22;11798;51.528;7.240;2023-05-16T03:39:02;9.30;99.90
23259;DHT22;11798;51.528;7.240;2023-05-16T03:41:28;9.30;99.90
23259;DHT22;11798;51.528;7.240;2023-05-16T03:43:53;9.20;99.90
23259;DHT22;11798;51.528;7.240;2023-05-16T03:46:19;9.20;99.90
23259;DHT22;11798;51.528;7.240;2023-05-16T03:48:44;9.20;99.90
23259;DHT22;11798;51.528;7.240;2023-05-16T03:51:10;9.10;99.90
23259;DHT22;11798;51.528;7.240;2023-05-16T03:53:36;9.00;99.90
23259;DHT22;11798;51.528;7.240;2023-05-16T03:56:01;8.90;99.90
23259;DHT22;11798;51.528;7.240;2023-05-16T03:58:28;8.90;99.90
23259;DHT22;11798;51.528;7.240;2023-05-16T04:00:54;8.90;99.90
23259;DHT22;11798;51.528;7.240;2023-05-16T04:03:19;8.90;99.90
23259;DHT22;11798;51.528;7.240;2023-05-16T04:05:52;8.90;99.90
23259;DHT22;11798;51.528;7.240;2023-05-16T04:08:18;8.90;99.90
23259;DHT22;11798;51.528;7.240;2023-05-16T04:10:44;8.90;99.90
23259;DHT22;11798;51.528;7.240;2023-05-16T04:13:09;8.80;99.90
23259;DHT22;11798;51.528;7.240;2023-05-16T04:15:34;8.80;99.90
23259;DHT22;11798;51.528;7.240;2023-05-16T04:18:00;8.90;99.90
23259;DHT22;11798;51.528;7.240;2023-05-16T04:20:26;8.90;99.90
23259;DHT22;11798;51.528;7.240;2023-05-16T04:22:51;8.80;99.90
23259;DHT22;11798;51.528;7.240;2023-05-16T04:25:17;8.80;99.90
23259;DHT22;11798;51.528;7.240;2023-05-16T04:27:42;8.70;99.90
23259;DHT22;11798;51.528;7.240;2023-05-16T04:30:08;8.60;99.90
23259;DHT22;11798;51.528;7.240;2023-05-16T04:32:35;8.60;99.90
23259;DHT22;11798;51.528;7.240;2023-05-16T04:35:01;8.70;99.90
23259;DHT22;11798;51.528;7.240;2023-05-16T04:37:26;8.70;99.90
23259;DHT22;11798;51.528;7.240;2023-05-16T04:39:52;8.70;99.90
23259;DHT22;11798;51.528;7.240;2023-05-16T04:42:18;8.70;99.90
23259;DHT22;11798;51.528;7.240;2023-05-16T04:44:44;8.60;99.90
23259;DHT22;11798;51.528;7.240;2023-05-16T04:47:12;8.60;99.90
23259;DHT22;11798;51.528;7.240;2023-05-16T04:49:37;8.60;99.90
23259;DHT22;11798;51.528;7.240;2023-05-16T04:52:03;8.60;99.90
23259;DHT22;11798;51.528;7.240;2023-05-16T04:54:29;8.60;99.90
23259;DHT22;11798;51.528;7.240;2023-05-16T04:56:54;8.70;99.90
23259;DHT22;11798;51.528;7.240;2023-05-16T04:59:20;8.70;99.90
23259;DHT22;11798;51.528;7.240;2023-05-16T05:01:46;8.60;99.90
23259;DHT22;11798;51.528;7.240;2023-05-16T05:04:11;8.70;99.90
23259;DHT22;11798;51.528;7.240;2023-05-16T05:06:36;8.70;99.90
23259;DHT22;11798;51.528;7.240;2023-05-16T05:09:02;8.70;99.90
23259;DHT22;11798;51.528;7.240;2023-05-16T05:11:30;8.70;99.90
23259;DHT22;11798;51.528;7.240;2023-05-16T05:13:55;8.80;99.90
23259;DHT22;11798;51.528;7.240;2023-05-16T05:16:21;9.00;99.90
23259;DHT22;11798;51.528;7.240;2023-05-16T05:18:46;8.90;99.90
23259;DHT22;11798;51.528;7.240;2023-05-16T05:21:12;8.80;99.90
23259;DHT22;11798;51.528;7.240;2023-05-16T05:23:37;8.90;99.90
23259;DHT22;11798;51.528;7.240;2023-05-16T05:26:03;9.00;99.90
23259;DHT22;11798;51.528;7.240;2023-05-16T05:28:29;9.00;99.90
23259;DHT22;11798;51.528;7.240;2023-05-16T05:30:54;9.10;99.90
23259;DHT22;11798;51.528;7.240;2023-05-16T05:33:22;9.00;99.90
23259;DHT22;11798;51.528;7.240;2023-05-16T05:35:50;9.10;99.90
23259;DHT22;11798;51.528;7.240;2023-05-16T05:38:18;9.10;99.90
23259;DHT22;11798;51.528;7.240;2023-05-16T05:40:44;9.30;99.90
23259;DHT22;11798;51.528;7.240;2023-05-16T05:43:09;9.30;99.90
23259;DHT22;11798;51.528;7.240;2023-05-16T05:45:35;9.50;99.90
23259;DHT22;11798;51.528;7.240;2023-05-16T05:48:01;9.60;99.90
23259;DHT22;11798;51.528;7.240;2023-05-16T05:50:27;9.70;99.90
23259;DHT22;11798;51.528;7.240;2023-05-16T05:52:53;9.80;99.90
23259;DHT22;11798;51.528;7.240;2023-05-16T05:55:19;9.80;99.90
23259;DHT22;11798;51.528;7.240;2023-05-16T05:57:44;9.80;99.90
23259;DHT22;11798;51.528;7.240;2023-05-16T06:00:10;9.80;99.90
23259;DHT22;11798;51.528;7.240;2023-05-16T06:02:36;9.90;99.90
23259;DHT22;11798;51.528;7.240;2023-05-16T06:05:01;10.00;99.90
23259;DHT22;11798;51.528;7.240;2023-05-16T06:07:27;9.80;99.90
23259;DHT22;11798;51.528;7.240;2023-05-16T06:09:52;9.80;99.90
23259;DHT22;11798;51.528;7.240;2023-05-16T06:12:18;9.80;99.90
23259;DHT22;11798;51.528;7.240;2023-05-16T06:14:43;10.00;99.90
23259;DHT22;11798;51.528;7.240;2023-05-16T06:17:09;9.90;99.90
23259;DHT22;11798;51.528;7.240;2023-05-16T06:19:34;10.10;99.90
23259;DHT22;11798;51.528;7.240;2023-05-16T06:22:00;10.10;99.90
23259;DHT22;11798;51.528;7.240;2023-05-16T06:24:25;10.00;99.90
23259;DHT22;11798;51.528;7.240;2023-05-16T06:26:51;10.00;99.90
23259;DHT22;11798;51.528;7.240;2023-05-16T06:29:16;10.10;99.90
23259;DHT22;11798;51.528;7.240;2023-05-16T06:31:42;10.00;99.90
23259;DHT22;11798;51.528;7.240;2023-05-16T06:34:08;10.10;99.90
23259;DHT22;11798;51.528;7.240;2023-05-16T06:36:33;10.20;99.90
23259;DHT22;11798;51.528;7.240;2023-05-16T06:38:59;10.30;99.90
23259;DHT22;11798;51.528;7.240;2023-05-16T06:41:24;10.40;99.90
23259;DHT22;11798;51.528;7.240;2023-05-16T06:43:50;10.30;99.90
23259;DHT22;11798;51.528;7.240;2023-05-16T06:46:16;10.40;99.90
23259;DHT22;11798;51.528;7.240;2023-05-16T06:48:42;10.40;99.90
23259;DHT22;11798;51.528;7.240;2023-05-16T06:51:07;10.50;99.90
23259;DHT22;11798;51.528;7.240;2023-05-16T06:53:34;10.40;99.90
23259;DHT22;11798;51.528;7.240;2023-05-16T06:55:59;10.50;99.90
23259;DHT22;11798;51.528;7.240;2023-05-16T06:58:25;10.50;99.90
23259;DHT22;11798;51.528;7.240;2023-05-16T07:00:51;10.60;99.90
23259;DHT22;11798;51.528;7.240;2023-05-16T07:03:17;10.60;99.90
23259;DHT22;11798;51.528;7.240;2023-05-16T07:05:42;10.80;99.90
23259;DHT22;11798;51.528;7.240;2023-05-16T07:08:08;10.80;99.90
23259;DHT22;11798;51.528;7.240;2023-05-16T07:10:37;10.70;99.90
23259;DHT22;11798;51.528;7.240;2023-05-16T07:13:02;10.70;99.90
23259;DHT22;11798;51.528;7.240;2023-05-16T07:15:29;10.80;99.90
23259;DHT22;11798;51.528;7.240;2023-05-16T07:17:55;10.80;99.90
23259;DHT22;11798;51.528;7.240;2023-05-16T07:20:21;10.90;99.90
23259;DHT22;11798;51.528;7.240;2023-05-16T07:22:46;10.90;99.90
23259;DHT22;11798;51.528;7.240;2023-05-16T07:25:12;11.10;99.90
23259;DHT22;11798;51.528;7.240;2023-05-16T07:27:39;11.30;99.90
23259;DHT22;11798;51.528;7.240;2023-05-16T07:30:07;11.20;99.90
23259;DHT22;11798;51.528;7.240;2023-05-16T07:32:33;11.20;99.90
23259;DHT22;11798;51.528;7.240;2023-05-16T07:34:58;11.20;99.90
23259;DHT22;11798;51.528;7.240;2023-05-16T07:37:24;11.20;99.90
23259;DHT22;11798;51.528;7.240;2023-05-16T07:39:50;11.10;99.90
23259;DHT22;11798;51.528;7.240;2023-05-16T07:42:15;11.10;99.90
23259;DHT22;11798;51.528;7.240;2023-05-16T07:44:41;11.20;99.90
23259;DHT22;11798;51.528;7.240;2023-05-16T07:47:06;11.20;99.90
23259;DHT22;11798;51.528;7.240;2023-05-16T07:49:32;11.20;99.90
23259;DHT22;11798;51.528;7.240;2023-05-16T07:51:57;11.20;99.90
23259;DHT22;11798;51.528;7.240;2023-05-16T07:54:23;11.10;99.90
23259;DHT22;11798;51.528;7.240;2023-05-16T07:56:48;11.30;99.90
23259;DHT22;11798;51.528;7.240;2023-05-16T07:59:14;11.30;99.90
23259;DHT22;11798;51.528;7.240;2023-05-16T08:01:39;11.30;99.90
23259;DHT22;11798;51.528;7.240;2023-05-16T08:04:05;11.20;99.90
23259;DHT22;11798;51.528;7.240;2023-05-16T08:06:31;11.20;99.90
23259;DHT22;11798;51.528;7.240;2023-05-16T08:08:56;11.20;99.90
23259;DHT22;11798;51.528;7.240;2023-05-16T08:11:22;11.40;99.90
23259;DHT22;11798;51.528;7.240;2023-05-16T08:13:48;11.30;99.90
23259;DHT22;11798;51.528;7.240;2023-05-16T08:16:13;11.30;99.90
23259;DHT22;11798;51.528;7.240;2023-05-16T08:18:39;11.30;99.90
23259;DHT22;11798;51.528;7.240;2023-05-16T08:21:04;11.20;99.90
23259;DHT22;11798;51.528;7.240;2023-05-16T08:23:30;11.30;99.90
23259;DHT22;11798;51.528;7.240;2023-05-16T08:25:55;11.40;99.90
23259;DHT22;11798;51.528;7.240;2023-05-16T08:28:21;11.50;99.90
23259;DHT22;11798;51.528;7.240;2023-05-16T08:30:47;11.50;99.90
23259;DHT22;11798;51.528;7.240;2023-05-16T08:33:12;11.50;99.90
23259;DHT22;11798;51.528;7.240;2023-05-16T08:35:41;11.50;99.90
23259;DHT22;11798;51.528;7.240;2023-05-16T08:38:06;11.50;99.90
23259;DHT22;11798;51.528;7.240;2023-05-16T08:40:32;11.40;99.90
23259;DHT22;11798;51.528;7.240;2023-05-16T08:42:58;11.50;99.90
23259;DHT22;11798;51.528;7.240;2023-05-16T08:45:23;11.60;99.90
23259;DHT22;11798;51.528;7.240;2023-05-16T08:47:49;11.70;99.90
23259;DHT22;11798;51.528;7.240;2023-05-16T08:50:15;11.80;99.90
23259;DHT22;11798;51.528;7.240;2023-05-16T08:52:42;11.90;99.90
23259;DHT22;11798;51.528;7.240;2023-05-16T08:55:08;12.00;99.90
23259;DHT22;11798;51.528;7.240;2023-05-16T08:57:34;12.10;99.90
23259;DHT22;11798;51.528;7.240;2023-05-16T08:59:59;12.10;99.90
23259;DHT22;11798;51.528;7.240;2023-05-16T09:02:26;12.20;99.90
23259;DHT22;11798;51.528;7.240;2023-05-16T09:04:52;12.20;99.90
23259;DHT22;11798;51.528;7.240;2023-05-16T09:07:18;12.40;99.90
23259;DHT22;11798;51.528;7.240;2023-05-16T09:09:43;12.60;99.90
23259;DHT22;11798;51.528;7.240;2023-05-16T09:12:09;12.70;99.90
23259;DHT22;11798;51.528;7.240;2023-05-16T09:14:35;12.70;99.90
23259;DHT22;11798;51.528;7.240;2023-05-16T09:17:04;12.70;99.90
23259;DHT22;11798;51.528;7.240;2023-05-16T09:19:38;12.80;99.90
23259;DHT22;11798;51.528;7.240;2023-05-16T09:22:05;12.90;99.90
23259;DHT22;11798;51.528;7.240;2023-05-16T09:24:31;13.00;99.90
23259;DHT22;11798;51.528;7.240;2023-05-16T09:26:57;13.10;99.90
23259;DHT22;11798;51.528;7.240;2023-05-16T09:29:32;12.90;99.90
23259;DHT22;11798;51.528;7.240;2023-05-16T09:32:03;12.80;99.90
23259;DHT22;11798;51.528;7.240;2023-05-16T09:34:29;13.00;99.90
23259;DHT22;11798;51.528;7.240;2023-05-16T09:36:54;13.10;99.90
23259;DHT22;11798;51.528;7.240;2023-05-16T09:39:20;13.20;99.90
23259;DHT22;11798;51.528;7.240;2023-05-16T09:41:45;13.40;99.90
23259;DHT22;11798;51.528;7.240;2023-05-16T09:44:11;13.60;99.90
23259;DHT22;11798;51.528;7.240;2023-05-16T09:46:36;13.70;99.90
23259;DHT22;11798;51.528;7.240;2023-05-16T09:49:02;13.60;99.90
23259;DHT22;11798;51.528;7.240;2023-05-16T09:51:28;13.50;99.90
23259;DHT22;11798;51.528;7.240;2023-05-16T09:53:53;13.40;99.90
23259;DHT22;11798;51.528;7.240;2023-05-16T09:56:19;13.50;99.90
23259;DHT22;11798;51.528;7.240;2023-05-16T09:58:45;13.40;99.90
23259;DHT22;11798;51.528;7.240;2023-05-16T10:01:12;13.40;99.90
23259;DHT22;11798;51.528;7.240;2023-05-16T10:03:38;13.30;99.90
23259;DHT22;11798;51.528;7.240;2023-05-16T10:06:04;13.50;99.90
23259;DHT22;11798;51.528;7.240;2023-05-16T10:08:31;13.80;99.90
23259;DHT22;11798;51.528;7.240;2023-05-16T10:11:00;13.80;99.90
23259;DHT22;11798;51.528;7.240;2023-05-16T10:13:30;13.90;99.90
23259;DHT22;11798;51.528;7.240;2023-05-16T10:15:56;13.90;99.90
23259;DHT22;11798;51.528;7.240;2023-05-16T10:18:23;13.70;99.90
23259;DHT22;11798;51.528;7.240;2023-05-16T10:20:50;13.70;99.90
23259;DHT22;11798;51.528;7.240;2023-05-16T10:23:18;13.90;99.90
23259;DHT22;11798;51.528;7.240;2023-05-16T10:25:44;14.10;99.90
23259;DHT22;11798;51.528;7.240;2023-05-16T10:28:10;14.20;99.90
23259;DHT22;11798;51.528;7.240;2023-05-16T10:30:36;14.20;99.90
23259;DHT22;11798;51.528;7.240;2023-05-16T10:33:04;14.20;99.90
23259;DHT22;11798;51.528;7.240;2023-05-16T10:35:30;14.00;99.90
23259;DHT22;11798;51.528;7.240;2023-05-16T10:37:57;14.00;99.90
23259;DHT22;11798;51.528;7.240;2023-05-16T10:40:23;14.10;99.90
23259;DHT22;11798;51.528;7.240;2023-05-16T10:42:55;14.20;99.90
23259;DHT22;11798;51.528;7.240;2023-05-16T10:45:21;14.10;99.90
23259;DHT22;11798;51.528;7.240;2023-05-16T10:47:59;14.00;99.90
23259;DHT22;11798;51.528;7.240;2023-05-16T10:53:17;14.00;99.90
23259;DHT22;11798;51.528;7.240;2023-05-16T10:55:43;13.90;99.90
23259;DHT22;11798;51.528;7.240;2023-05-16T10:58:09;14.00;99.90
23259;DHT22;11798;51.528;7.240;2023-05-16T11:00:35;14.20;99.90
23259;DHT22;11798;51.528;7.240;2023-05-16T11:03:04;14.20;99.90
23259;DHT22;11798;51.528;7.240;2023-05-16T11:05:30;14.40;99.90
23259;DHT22;11798;51.528;7.240;2023-05-16T11:08:05;14.40;99.90
23259;DHT22;11798;51.528;7.240;2023-05-16T11:10:30;14.50;99.90
23259;DHT22;11798;51.528;7.240;2023-05-16T11:13:01;14.70;99.90
23259;DHT22;11798;51.528;7.240;2023-05-16T11:15:30;14.80;99.90
23259;DHT22;11798;51.528;7.240;2023-05-16T11:20:34;15.00;99.90
23259;DHT22;11798;51.528;7.240;2023-05-16T11:25:47;15.20;99.90
23259;DHT22;11798;51.528;7.240;2023-05-16T11:28:14;15.30;99.90
23259;DHT22;11798;51.528;7.240;2023-05-16T11:30:45;15.30;99.90
23259;DHT22;11798;51.528;7.240;2023-05-16T11:33:11;15.20;99.90
23259;DHT22;11798;51.528;7.240;2023-05-16T11:35:40;15.20;99.90
23259;DHT22;11798;51.528;7.240;2023-05-16T11:38:05;15.10;99.90
23259;DHT22;11798;51.528;7.240;2023-05-16T11:40:31;15.10;99.90
23259;DHT22;11798;51.528;7.240;2023-05-16T11:42:58;14.90;99.90
23259;DHT22;11798;51.528;7.240;2023-05-16T11:45:24;14.60;99.90
23259;DHT22;11798;51.528;7.240;2023-05-16T11:47:50;14.50;99.90
23259;DHT22;11798;51.528;7.240;2023-05-16T11:50:16;14.40;99.90
23259;DHT22;11798;51.528;7.240;2023-05-16T11:52:43;14.50;99.90
23259;DHT22;11798;51.528;7.240;2023-05-16T11:55:09;14.60;99.90
23259;DHT22;11798;51.528;7.240;2023-05-16T11:57:36;14.80;99.90
23259;DHT22;11798;51.528;7.240;2023-05-16T12:00:03;14.80;99.90
23259;DHT22;11798;51.528;7.240;2023-05-16T12:02:30;14.80;99.90
23259;DHT22;11798;51.528;7.240;2023-05-16T12:04:56;14.90;99.90
23259;DHT22;11798;51.528;7.240;2023-05-16T12:07:26;15.00;99.90
23259;DHT22;11798;51.528;7.240;2023-05-16T12:09:52;15.20;99.90
23259;DHT22;11798;51.528;7.240;2023-05-16T12:12:19;15.40;99.90
23259;DHT22;11798;51.528;7.240;2023-05-16T12:14:45;15.60;99.90
23259;DHT22;11798;51.528;7.240;2023-05-16T12:17:10;15.50;99.90
23259;DHT22;11798;51.528;7.240;2023-05-16T12:19:36;15.30;99.90
23259;DHT22;11798;51.528;7.240;2023-05-16T12:22:01;15.20;99.90
23259;DHT22;11798;51.528;7.240;2023-05-16T12:24:30;15.20;99.90
23259;DHT22;11798;51.528;7.240;2023-05-16T12:26:56;15.00;99.90
23259;DHT22;11798;51.528;7.240;2023-05-16T12:29:23;14.90;99.90
23259;DHT22;11798;51.528;7.240;2023-05-16T12:31:51;14.70;99.90
23259;DHT22;11798;51.528;7.240;2023-05-16T12:34:17;14.80;99.90
23259;DHT22;11798;51.528;7.240;2023-05-16T12:36:43;14.70;99.90
23259;DHT22;11798;51.528;7.240;2023-05-16T12:39:10;14.60;99.90
23259;DHT22;11798;51.528;7.240;2023-05-16T12:41:39;14.70;99.90
23259;DHT22;11798;51.528;7.240;2023-05-16T12:44:06;14.70;99.90
23259;DHT22;11798;51.528;7.240;2023-05-16T12:46:31;15.00;99.90
23259;DHT22;11798;51.528;7.240;2023-05-16T12:49:03;15.20;99.90
23259;DHT22;11798;51.528;7.240;2023-05-16T12:51:32;15.40;99.90
23259;DHT22;11798;51.528;7.240;2023-05-16T12:54:05;15.50;99.90
23259;DHT22;11798;51.528;7.240;2023-05-16T12:56:31;15.30;99.90
23259;DHT22;11798;51.528;7.240;2023-05-16T12:58:56;15.30;99.90
23259;DHT22;11798;51.528;7.240;2023-05-16T13:01:22;15.30;99.90
23259;DHT22;11798;51.528;7.240;2023-05-16T13:03:47;15.10;99.90
23259;DHT22;11798;51.528;7.240;2023-05-16T13:06:13;14.90;99.90
23259;DHT22;11798;51.528;7.240;2023-05-16T13:08:38;15.00;99.90
23259;DHT22;11798;51.528;7.240;2023-05-16T13:11:04;14.90;99.90
23259;DHT22;11798;51.528;7.240;2023-05-16T13:13:29;14.70;99.90
23259;DHT22;11798;51.528;7.240;2023-05-16T13:15:55;14.60;99.90
23259;DHT22;11798;51.528;7.240;2023-05-16T13:18:20;14.60;99.90
23259;DHT22;11798;51.528;7.240;2023-05-16T13:20:46;14.60;99.90
23259;DHT22;11798;51.528;7.240;2023-05-16T13:23:11;14.60;99.90
23259;DHT22;11798;51.528;7.240;2023-05-16T13:25:37;14.60;99.90
23259;DHT22;11798;51.528;7.240;2023-05-16T13:28:02;14.70;99.90
23259;DHT22;11798;51.528;7.240;2023-05-16T13:30:28;14.90;99.90
23259;DHT22;11798;51.528;7.240;2023-05-16T13:32:54;15.00;99.90
23259;DHT22;11798;51.528;7.240;2023-05-16T13:35:20;14.90;99.90
23259;DHT22;11798;51.528;7.240;2023-05-16T13:37:46;14.90;99.90
23259;DHT22;11798;51.528;7.240;2023-05-16T13:40:11;15.00;99.90
23259;DHT22;11798;51.528;7.240;2023-05-16T13:42:37;14.90;99.90
23259;DHT22;11798;51.528;7.240;2023-05-16T13:45:03;15.00;99.90
23259;DHT22;11798;51.528;7.240;2023-05-16T13:47:28;15.30;99.90
23259;DHT22;11798;51.528;7.240;2023-05-16T13:49:54;15.50;99.90
23259;DHT22;11798;51.528;7.240;2023-05-16T13:52:19;15.70;99.90
23259;DHT22;11798;51.528;7.240;2023-05-16T13:54:45;15.80;99.90
23259;DHT22;11798;51.528;7.240;2023-05-16T13:57:11;15.90;99.90
23259;DHT22;11798;51.528;7.240;2023-05-16T13:59:36;15.90;99.90
23259;DHT22;11798;51.528;7.240;2023-05-16T14:02:02;15.80;99.90
23259;DHT22;11798;51.528;7.240;2023-05-16T14:04:27;15.60;99.90
23259;DHT22;11798;51.528;7.240;2023-05-16T14:06:53;15.60;99.90
23259;DHT22;11798;51.528;7.240;2023-05-16T14:09:19;15.80;99.90
23259;DHT22;11798;51.528;7.240;2023-05-16T14:11:45;16.00;99.90
23259;DHT22;11798;51.528;7.240;2023-05-16T14:14:10;16.30;99.90
23259;DHT22;11798;51.528;7.240;2023-05-16T14:16:36;16.40;99.90
23259;DHT22;11798;51.528;7.240;2023-05-16T14:19:01;16.40;99.90
23259;DHT22;11798;51.528;7.240;2023-05-16T14:21:27;16.50;99.90
23259;DHT22;11798;51.528;7.240;2023-05-16T14:23:52;16.70;99.90
23259;DHT22;11798;51.528;7.240;2023-05-16T14:26:18;16.50;99.90
23259;DHT22;11798;51.528;7.240;2023-05-16T14:28:47;16.30;99.90
23259;DHT22;11798;51.528;7.240;2023-05-16T14:31:12;16.00;99.90
23259;DHT22;11798;51.528;7.240;2023-05-16T14:33:38;15.70;99.90
23259;DHT22;11798;51.528;7.240;2023-05-16T14:36:05;15.80;99.90
23259;DHT22;11798;51.528;7.240;2023-05-16T14:38:31;15.60;99.90
23259;DHT22;11798;51.528;7.240;2023-05-16T14:40:57;15.60;99.90
23259;DHT22;11798;51.528;7.240;2023-05-16T14:43:22;15.30;99.90
23259;DHT22;11798;51.528;7.240;2023-05-16T14:45:48;15.20;99.90
23259;DHT22;11798;51.528;7.240;2023-05-16T14:48:13;15.20;99.90
23259;DHT22;11798;51.528;7.240;2023-05-16T14:50:39;15.00;99.90
23259;DHT22;11798;51.528;7.240;2023-05-16T14:53:04;14.90;99.90
23259;DHT22;11798;51.528;7.240;2023-05-16T14:55:30;14.90;99.90
23259;DHT22;11798;51.528;7.240;2023-05-16T14:57:55;14.80;99.90
23259;DHT22;11798;51.528;7.240;2023-05-16T15:00:22;14.80;99.90
23259;DHT22;11798;51.528;7.240;2023-05-16T15:02:48;14.60;99.90
23259;DHT22;11798;51.528;7.240;2023-05-16T15:05:14;14.50;99.90
23259;DHT22;11798;51.528;7.240;2023-05-16T15:07:39;14.50;99.90
23259;DHT22;11798;51.528;7.240;2023-05-16T15:10:05;14.60;99.90
23259;DHT22;11798;51.528;7.240;2023-05-16T15:12:31;14.70;99.90
23259;DHT22;11798;51.528;7.240;2023-05-16T15:14:56;14.60;99.90
23259;DHT22;11798;51.528;7.240;2023-05-16T15:17:22;14.40;99.90
23259;DHT22;11798;51.528;7.240;2023-05-16T15:19:47;14.40;99.90
23259;DHT22;11798;51.528;7.240;2023-05-16T15:22:13;14.20;99.90
23259;DHT22;11798;51.528;7.240;2023-05-16T15:24:38;14.30;99.90
23259;DHT22;11798;51.528;7.240;2023-05-16T15:27:04;14.20;99.90
23259;DHT22;11798;51.528;7.240;2023-05-16T15:29:29;14.10;99.90
23259;DHT22;11798;51.528;7.240;2023-05-16T15:31:56;14.00;99.90
23259;DHT22;11798;51.528;7.240;2023-05-16T15:34:22;13.90;99.90
23259;DHT22;11798;51.528;7.240;2023-05-16T15:36:47;13.90;99.90
23259;DHT22;11798;51.528;7.240;2023-05-16T15:39:13;13.90;99.90
23259;DHT22;11798;51.528;7.240;2023-05-16T15:41:38;14.00;99.90
23259;DHT22;11798;51.528;7.240;2023-05-16T15:44:04;14.00;99.90